Time;durP1;ratioP1;P1;durP2;ratioP2;P2;SDS_P1;SDS_P2;PMS_P1;PMS_P2;Temp;Humidity;BMP_temperature;BMP_pressure;BME280_temperature;BME280_humidity;BME280_pressure;Samples;Min_cycle;Max_cycle;Signal;HPM_P1;HPM_P2
2021/11/07 00:01:14;;;;;;;27.63;18.43;;;4.70;99.90;;;;;;5069315;28;20183;-87
2021/11/07 00:03:47;;;;;;;24.23;17.03;;;4.60;99.90;;;;;;5068213;28;20214;-87
2021/11/07 00:06:21;;;;;;;25.03;17.20;;;4.70;99.90;;;;;;5066553;28;20271;-86
2021/11/07 00:08:59;;;;;;;21.13;15.37;;;4.70;99.90;;;;;;5056602;28;20259;-87
2021/11/07 00:11:36;;;;;;;18.77;13.43;;;4.70;99.90;;;;;;5068274;28;20198;-87
2021/11/07 00:14:05;;;;;;;18.87;13.40;;;4.80;99.90;;;;;;5067502;28;20651;-87
2021/11/07 00:16:34;;;;;;;22.60;15.80;;;4.60;99.90;;;;;;5052518;28;20235;-87
2021/11/07 00:21:48;;;;;;;22.30;15.87;;;4.60;99.90;;;;;;5068836;28;20309;-87
2021/11/07 00:24:23;;;;;;;24.37;15.40;;;4.60;99.90;;;;;;5067473;28;20184;-87
2021/11/07 00:26:58;;;;;;;21.80;15.73;;;4.70;99.90;;;;;;5064391;28;20264;-87
2021/11/07 00:29:30;;;;;;;20.23;14.83;;;4.70;99.90;;;;;;5066790;28;20183;-87
2021/11/07 00:32:17;;;;;;;21.47;15.57;;;4.70;99.90;;;;;;5067777;28;20266;-86
2021/11/07 00:37:33;;;;;;;28.10;17.50;;;4.60;99.90;;;;;;5052664;28;20314;-85
2021/11/07 00:45:29;;;;;;;29.23;19.03;;;4.60;99.90;;;;;;5072582;28;20264;-87
2021/11/07 00:50:40;;;;;;;33.33;19.23;;;4.50;99.90;;;;;;5074494;28;20249;-86
2021/11/07 00:56:02;;;;;;;29.17;17.27;;;4.50;99.90;;;;;;5073164;28;20213;-86
2021/11/07 00:58:38;;;;;;;34.07;19.93;;;4.60;99.90;;;;;;5056818;28;20191;-86
2021/11/07 01:01:09;;;;;;;34.27;20.63;;;4.60;99.90;;;;;;5052261;28;20184;-87
2021/11/07 01:03:36;;;;;;;39.40;20.67;;;4.60;99.90;;;;;;5069622;28;20191;-86
2021/11/07 01:06:02;;;;;;;35.80;21.07;;;4.70;99.90;;;;;;5069686;28;20287;-86
2021/11/07 01:08:28;;;;;;;37.73;21.07;;;4.90;99.90;;;;;;5068433;28;20184;-86
2021/11/07 01:10:54;;;;;;;36.33;22.10;;;4.90;99.90;;;;;;5072194;28;20195;-86
2021/11/07 01:13:20;;;;;;;35.43;20.27;;;5.00;99.90;;;;;;5067659;28;20245;-86
2021/11/07 01:15:46;;;;;;;33.70;20.53;;;5.10;99.90;;;;;;5074545;28;20242;-86
2021/11/07 01:18:12;;;;;;;36.17;20.60;;;5.00;99.90;;;;;;5072462;28;20201;-86
2021/11/07 01:20:38;;;;;;;40.27;20.93;;;5.10;99.90;;;;;;5047239;28;20206;-86
2021/11/07 01:25:37;;;;;;;45.13;21.20;;;4.90;99.90;;;;;;5055442;28;20263;-86
2021/11/07 01:28:04;;;;;;;40.87;21.17;;;4.90;99.90;;;;;;5071900;28;20211;-87
2021/11/07 01:30:32;;;;;;;43.00;21.03;;;5.00;99.90;;;;;;5054219;28;20534;-87
2021/11/07 01:33:05;;;;;;;46.33;21.53;;;4.90;99.90;;;;;;5037361;28;20200;-87
2021/11/07 01:38:13;;;;;;;41.53;21.30;;;4.90;99.90;;;;;;5070399;28;20256;-86
2021/11/07 01:43:39;;;;;;;37.10;20.70;;;4.90;99.90;;;;;;5027257;28;20195;-86
2021/11/07 01:46:26;;;;;;;56.60;21.87;;;4.90;99.90;;;;;;5059115;28;20224;-87
2021/11/07 01:49:05;;;;;;;44.43;22.27;;;4.90;99.90;;;;;;5041487;28;20195;-86
2021/11/07 01:51:32;;;;;;;53.17;24.07;;;4.90;99.90;;;;;;5042687;28;20191;-86
2021/11/07 01:54:23;;;;;;;47.03;24.23;;;4.90;99.90;;;;;;5053082;28;20175;-86
2021/11/07 01:56:46;;;;;;;50.03;23.97;;;4.90;99.90;;;;;;5056994;28;20228;-87
2021/11/07 01:59:12;;;;;;;50.43;22.80;;;4.90;99.90;;;;;;5074296;28;20230;-88
2021/11/07 02:01:38;;;;;;;46.40;23.17;;;5.00;99.90;;;;;;5062360;28;20207;-86
2021/11/07 02:04:04;;;;;;;44.13;24.60;;;5.00;99.90;;;;;;5074015;28;20191;-86
2021/11/07 02:06:29;;;;;;;49.17;23.53;;;5.00;99.90;;;;;;5067111;28;20243;-87
2021/11/07 02:08:55;;;;;;;61.17;25.03;;;4.90;99.90;;;;;;5068550;28;20249;-87
2021/11/07 02:11:21;;;;;;;54.73;24.77;;;5.00;99.90;;;;;;5070262;28;20183;-87
2021/11/07 02:13:49;;;;;;;51.43;26.03;;;5.00;99.90;;;;;;5069809;28;20237;-86
2021/11/07 02:16:18;;;;;;;50.27;25.50;;;5.00;99.90;;;;;;5069484;28;20695;-86
2021/11/07 02:18:45;;;;;;;50.70;26.63;;;5.10;99.90;;;;;;5068697;28;20191;-86
2021/11/07 02:21:12;;;;;;;43.03;24.53;;;5.10;99.90;;;;;;5050512;28;20188;-88
2021/11/07 02:23:37;;;;;;;46.50;26.20;;;5.20;99.90;;;;;;5069081;28;20204;-87
2021/11/07 02:26:05;;;;;;;47.57;26.43;;;5.10;99.90;;;;;;5066644;28;20226;-89
2021/11/07 02:28:35;;;;;;;46.13;26.83;;;5.20;99.90;;;;;;5064503;28;20243;-87
2021/11/07 02:31:05;;;;;;;49.33;26.33;;;5.30;99.90;;;;;;5069780;28;20600;-87
2021/11/07 02:33:31;;;;;;;46.90;26.43;;;5.30;99.90;;;;;;5066015;28;20242;-87
2021/11/07 02:36:07;;;;;;;51.67;27.70;;;5.40;99.90;;;;;;5063689;28;20188;-87
2021/11/07 02:38:33;;;;;;;47.07;27.03;;;5.30;99.90;;;;;;5054188;28;20183;-87
2021/11/07 02:40:59;;;;;;;53.37;30.10;;;5.40;99.90;;;;;;5068327;28;20217;-87
2021/11/07 02:43:25;;;;;;;42.33;28.17;;;5.50;99.90;;;;;;5045494;28;20187;-87
2021/11/07 02:45:51;;;;;;;41.27;26.80;;;5.40;99.90;;;;;;5050941;28;20215;-86
2021/11/07 02:48:17;;;;;;;38.57;26.07;;;5.50;99.90;;;;;;5066175;28;20223;-87
2021/11/07 02:50:43;;;;;;;37.70;25.47;;;5.40;99.90;;;;;;5049334;28;20254;-85
2021/11/07 02:53:09;;;;;;;36.10;25.37;;;5.50;99.90;;;;;;5069063;28;20203;-86
2021/11/07 02:55:34;;;;;;;35.13;23.77;;;5.50;99.90;;;;;;5053142;28;20248;-85
2021/11/07 02:58:00;;;;;;;33.27;22.47;;;5.60;99.90;;;;;;5065353;28;20191;-86
2021/11/07 03:00:33;;;;;;;32.10;21.27;;;5.60;99.90;;;;;;5054704;28;20184;-86
2021/11/07 03:02:59;;;;;;;29.93;22.20;;;5.60;99.90;;;;;;5069285;28;20194;-86
2021/11/07 03:05:29;;;;;;;35.63;24.33;;;5.60;99.90;;;;;;5067803;28;20192;-86
2021/11/07 03:07:55;;;;;;;31.93;24.07;;;5.40;99.90;;;;;;5041939;28;20326;-86
2021/11/07 03:10:22;;;;;;;36.57;25.07;;;5.40;99.90;;;;;;5053065;28;20275;-86
2021/11/07 03:13:05;;;;;;;35.23;25.20;;;5.50;99.90;;;;;;5050521;28;20246;-86
2021/11/07 03:15:32;;;;;;;37.73;25.37;;;5.50;99.90;;;;;;5051505;28;20195;-86
2021/11/07 03:17:58;;;;;;;36.60;24.97;;;5.40;99.90;;;;;;5064746;28;20200;-86
2021/11/07 03:20:24;;;;;;;31.63;23.60;;;5.50;99.90;;;;;;5058839;28;20184;-86
2021/11/07 03:22:50;;;;;;;28.10;21.43;;;5.50;99.90;;;;;;5061833;28;20214;-86
2021/11/07 03:25:16;;;;;;;30.17;20.47;;;5.60;99.90;;;;;;5070617;28;20184;-86
2021/11/07 03:27:44;;;;;;;28.90;21.97;;;5.50;99.90;;;;;;5036091;28;20234;-86
2021/11/07 03:30:25;;;;;;;28.43;21.40;;;5.60;99.90;;;;;;5050683;28;20187;-85
2021/11/07 03:32:52;;;;;;;31.67;22.67;;;5.50;99.90;;;;;;5068783;28;20183;-86
2021/11/07 03:35:18;;;;;;;30.17;23.20;;;5.50;99.90;;;;;;5069052;28;20179;-86
2021/11/07 03:37:55;;;;;;;26.20;19.70;;;5.60;99.90;;;;;;5054180;28;20220;-86
2021/11/07 03:40:24;;;;;;;29.70;20.83;;;5.60;99.90;;;;;;5070711;28;20191;-86
2021/11/07 03:42:50;;;;;;;30.33;20.40;;;5.50;99.90;;;;;;5071392;28;20222;-86
2021/11/07 03:45:18;;;;;;;27.73;20.37;;;5.60;99.90;;;;;;5071913;28;20184;-86
2021/11/07 03:47:44;;;;;;;28.13;20.50;;;5.60;99.90;;;;;;5050883;28;20246;-86
2021/11/07 03:50:11;;;;;;;30.77;22.23;;;5.60;99.90;;;;;;5071411;28;20279;-86
2021/11/07 03:52:37;;;;;;;31.20;21.40;;;5.60;99.90;;;;;;5040165;28;20231;-86
2021/11/07 03:55:04;;;;;;;30.90;22.53;;;5.50;99.90;;;;;;5036191;28;20397;-86
2021/11/07 03:57:30;;;;;;;31.60;23.17;;;5.50;99.90;;;;;;5071652;28;20211;-86
2021/11/07 03:59:55;;;;;;;28.97;22.67;;;5.50;99.90;;;;;;5054495;28;20267;-86
2021/11/07 04:02:21;;;;;;;32.13;23.87;;;5.60;99.90;;;;;;5069355;28;21005;-86
2021/11/07 04:04:47;;;;;;;29.00;22.33;;;5.60;99.90;;;;;;5050976;28;20249;-86
2021/11/07 04:07:13;;;;;;;31.87;22.93;;;5.70;99.90;;;;;;5069924;28;20532;-86
2021/11/07 04:09:39;;;;;;;31.70;21.63;;;5.70;99.90;;;;;;5056956;28;20184;-86
2021/11/07 04:12:05;;;;;;;33.30;23.67;;;5.70;99.90;;;;;;5049918;28;20183;-85
2021/11/07 04:14:34;;;;;;;31.33;21.00;;;5.70;99.90;;;;;;5072114;28;20212;-86
2021/11/07 04:17:06;;;;;;;28.13;21.77;;;5.70;99.90;;;;;;5059947;28;20200;-86
2021/11/07 04:19:32;;;;;;;31.90;22.60;;;5.50;99.90;;;;;;5075015;28;20199;-86
2021/11/07 04:22:03;;;;;;;30.10;22.93;;;5.50;99.90;;;;;;5071631;28;20217;-86
2021/11/07 04:24:29;;;;;;;30.90;22.50;;;5.50;99.90;;;;;;5057999;28;20506;-86
2021/11/07 04:26:55;;;;;;;28.00;22.03;;;5.40;99.90;;;;;;5073598;28;20206;-86
2021/11/07 04:29:21;;;;;;;30.57;21.67;;;5.50;99.90;;;;;;5073853;28;20203;-86
2021/11/07 04:31:47;;;;;;;29.23;21.57;;;5.50;99.90;;;;;;5073734;28;20662;-86
2021/11/07 04:34:13;;;;;;;29.97;22.00;;;5.60;99.90;;;;;;5075675;28;20183;-86
2021/11/07 04:36:39;;;;;;;28.77;21.97;;;5.50;99.90;;;;;;5036969;28;20699;-86
2021/11/07 04:39:05;;;;;;;28.57;20.30;;;5.50;99.90;;;;;;5063490;28;20215;-86
2021/11/07 04:41:30;;;;;;;32.53;21.47;;;5.60;99.90;;;;;;5056941;28;20924;-85
2021/11/07 04:43:56;;;;;;;29.80;21.97;;;5.50;99.90;;;;;;5074102;28;20280;-86
2021/11/07 04:46:22;;;;;;;28.77;20.73;;;5.50;99.90;;;;;;5073308;28;20215;-86
2021/11/07 04:48:49;;;;;;;33.07;22.30;;;5.50;99.90;;;;;;5052535;28;20185;-86
2021/11/07 04:51:16;;;;;;;31.37;21.43;;;5.40;99.90;;;;;;5073699;28;20293;-86
2021/11/07 04:53:42;;;;;;;32.97;22.47;;;5.40;99.90;;;;;;5072236;28;20187;-86
2021/11/07 04:56:08;;;;;;;29.63;21.57;;;5.40;99.90;;;;;;5073552;28;20200;-86
2021/11/07 04:58:35;;;;;;;33.40;21.57;;;5.40;99.90;;;;;;5042514;28;20743;-86
2021/11/07 05:01:01;;;;;;;34.63;22.33;;;5.30;99.90;;;;;;5073697;28;20607;-86
2021/11/07 05:03:28;;;;;;;28.93;20.67;;;5.40;99.90;;;;;;5073327;28;20196;-87
2021/11/07 05:05:54;;;;;;;34.47;22.53;;;5.40;99.90;;;;;;5071482;28;20183;-86
2021/11/07 05:08:20;;;;;;;31.57;21.60;;;5.40;99.90;;;;;;5068425;28;20195;-86
2021/11/07 05:10:46;;;;;;;32.33;22.30;;;5.50;99.90;;;;;;5073841;28;20210;-87
2021/11/07 05:13:12;;;;;;;31.43;22.80;;;5.50;99.90;;;;;;5075919;28;20533;-86
2021/11/07 05:15:38;;;;;;;29.30;19.67;;;5.50;99.90;;;;;;5056781;28;20299;-86
2021/11/07 05:18:05;;;;;;;31.57;21.37;;;5.40;99.90;;;;;;5073406;28;20187;-86
2021/11/07 05:20:31;;;;;;;31.23;20.10;;;5.30;99.90;;;;;;5074947;28;20517;-87
2021/11/07 05:22:57;;;;;;;35.47;22.90;;;5.40;99.90;;;;;;5055291;28;20199;-86
2021/11/07 05:25:23;;;;;;;35.10;22.63;;;5.30;99.90;;;;;;5052929;28;20278;-86
2021/11/07 05:27:49;;;;;;;34.73;23.30;;;5.30;99.90;;;;;;5058332;28;20237;-86
2021/11/07 05:30:17;;;;;;;30.27;21.30;;;5.30;99.90;;;;;;5072752;28;20195;-87
2021/11/07 05:32:44;;;;;;;34.17;22.63;;;5.40;99.90;;;;;;5072700;28;20302;-86
2021/11/07 05:35:11;;;;;;;32.50;20.97;;;5.30;99.90;;;;;;5036899;28;20225;-86
2021/11/07 05:37:37;;;;;;;33.13;22.33;;;5.30;99.90;;;;;;5056689;28;20447;-86
2021/11/07 05:40:06;;;;;;;32.70;22.90;;;5.30;99.90;;;;;;5066943;28;20188;-86
2021/11/07 05:42:31;;;;;;;32.03;23.00;;;5.30;99.90;;;;;;5060923;28;20203;-87
2021/11/07 05:44:57;;;;;;;31.20;22.60;;;5.30;99.90;;;;;;5062999;28;20199;-86
2021/11/07 05:47:23;;;;;;;33.43;22.53;;;5.30;99.90;;;;;;5039927;28;20237;-85
2021/11/07 05:49:49;;;;;;;34.80;24.27;;;5.30;99.90;;;;;;5056204;28;20176;-86
2021/11/07 05:52:17;;;;;;;30.80;21.13;;;5.30;99.90;;;;;;5073044;28;20295;-86
2021/11/07 05:54:43;;;;;;;33.97;22.60;;;5.30;99.90;;;;;;5070640;28;20187;-86
2021/11/07 05:57:09;;;;;;;29.97;22.17;;;5.30;99.90;;;;;;5068526;28;20207;-86
2021/11/07 05:59:35;;;;;;;36.70;22.43;;;5.20;99.90;;;;;;5055150;28;20237;-86
2021/11/07 06:02:00;;;;;;;34.53;23.10;;;5.20;99.90;;;;;;5072428;28;20590;-86
2021/11/07 06:04:26;;;;;;;33.37;22.87;;;5.10;99.90;;;;;;5073050;28;20215;-86
2021/11/07 06:06:52;;;;;;;34.27;23.97;;;5.10;99.90;;;;;;5048469;28;20226;-86
2021/11/07 06:09:18;;;;;;;33.67;22.10;;;5.10;99.90;;;;;;5058759;28;20196;-86
2021/11/07 06:11:44;;;;;;;35.43;23.97;;;5.20;99.90;;;;;;5065068;28;20226;-86
2021/11/07 06:14:10;;;;;;;34.80;23.57;;;5.20;99.90;;;;;;5055608;28;20234;-87
2021/11/07 06:16:35;;;;;;;32.97;22.57;;;5.10;99.90;;;;;;5075421;28;20235;-86
2021/11/07 06:19:02;;;;;;;35.17;24.17;;;5.10;99.90;;;;;;5074467;28;20204;-86
2021/11/07 06:21:28;;;;;;;33.87;22.90;;;5.20;99.90;;;;;;5074362;28;20202;-86
2021/11/07 06:23:55;;;;;;;32.27;21.73;;;5.20;99.90;;;;;;5074245;28;20184;-86
2021/11/07 06:26:22;;;;;;;35.83;25.00;;;5.20;99.90;;;;;;5055579;28;20288;-86
2021/11/07 06:28:49;;;;;;;36.03;23.53;;;5.10;99.90;;;;;;5071585;28;20195;-87
2021/11/07 06:31:15;;;;;;;34.77;23.97;;;5.10;99.90;;;;;;5054950;28;20187;-86
2021/11/07 06:33:41;;;;;;;31.03;20.53;;;5.20;99.90;;;;;;5070165;28;20188;-86
2021/11/07 06:36:07;;;;;;;31.70;22.10;;;5.20;99.90;;;;;;5072560;28;20222;-86
2021/11/07 06:38:33;;;;;;;28.50;20.67;;;5.30;99.90;;;;;;5073528;28;20749;-86
2021/11/07 06:40:58;;;;;;;32.07;21.77;;;5.20;99.90;;;;;;5067896;28;20502;-87
2021/11/07 06:43:26;;;;;;;28.50;20.50;;;5.20;99.90;;;;;;5036463;28;20196;-86
2021/11/07 06:45:52;;;;;;;28.33;20.23;;;5.40;99.90;;;;;;5054528;28;20188;-86
2021/11/07 06:48:17;;;;;;;29.70;20.00;;;5.40;99.90;;;;;;5074476;28;20549;-86
2021/11/07 06:50:43;;;;;;;30.20;20.43;;;5.40;99.90;;;;;;5053509;28;20253;-86
2021/11/07 06:53:09;;;;;;;30.50;20.23;;;5.40;99.90;;;;;;5052357;28;20207;-86
2021/11/07 06:55:35;;;;;;;29.13;21.30;;;5.40;99.90;;;;;;5074501;28;20602;-86
2021/11/07 06:58:01;;;;;;;29.00;20.07;;;5.40;99.90;;;;;;5049265;28;20212;-86
2021/11/07 07:00:27;;;;;;;30.23;19.77;;;5.40;99.90;;;;;;5061795;28;20203;-86
2021/11/07 07:02:53;;;;;;;29.07;19.90;;;5.40;99.90;;;;;;5069230;28;20244;-86
2021/11/07 07:05:20;;;;;;;27.97;19.60;;;5.50;99.90;;;;;;5052835;28;20821;-86
2021/11/07 07:07:51;;;;;;;30.47;20.37;;;5.40;99.90;;;;;;5050178;28;20585;-86
2021/11/07 07:10:28;;;;;;;26.87;18.90;;;5.40;99.90;;;;;;5050443;28;20773;-86
2021/11/07 07:15:49;;;;;;;22.77;16.40;;;5.50;99.90;;;;;;5070808;28;20277;-86
2021/11/07 07:18:23;;;;;;;25.77;17.47;;;5.50;99.90;;;;;;5067348;28;20554;-86
2021/11/07 07:33:43;;;;;;;25.73;17.40;;;5.70;99.90;;;;;;5070280;28;20196;-87
2021/11/07 07:36:09;;;;;;;24.77;18.13;;;5.70;99.90;;;;;;5057637;28;20211;-89
2021/11/07 07:38:35;;;;;;;21.70;15.80;;;5.70;99.90;;;;;;5056912;28;20203;-88
2021/11/07 07:41:00;;;;;;;25.33;18.90;;;5.80;99.90;;;;;;5080858;28;20196;-89
2021/11/07 07:43:29;;;;;;;25.03;17.77;;;5.80;99.90;;;;;;5076084;28;20199;-88
2021/11/07 07:45:58;;;;;;;22.17;15.93;;;5.90;99.60;;;;;;5054273;28;20192;-88
2021/11/07 07:48:24;;;;;;;23.03;16.40;;;6.00;99.10;;;;;;5061961;28;20195;-89
2021/11/07 07:50:50;;;;;;;22.67;17.13;;;5.90;99.00;;;;;;5060035;28;20190;-87
2021/11/07 07:53:16;;;;;;;24.53;17.20;;;6.10;98.30;;;;;;5070476;28;20290;-89
2021/11/07 07:56:00;;;;;;;23.73;17.87;;;5.90;98.60;;;;;;5059494;28;20192;-89
2021/11/07 07:58:30;;;;;;;23.63;15.17;;;6.00;98.40;;;;;;5042391;28;20639;-88
2021/11/07 08:01:07;;;;;;;22.17;16.77;;;5.90;98.50;;;;;;5053888;28;20772;-87
2021/11/07 08:03:35;;;;;;;26.77;17.17;;;6.00;98.90;;;;;;5052738;28;20191;-88
2021/11/07 08:06:04;;;;;;;25.43;17.70;;;6.00;98.80;;;;;;5052110;28;20307;-88
2021/11/07 08:08:29;;;;;;;22.23;16.93;;;6.00;98.90;;;;;;5058014;28;20270;-88
2021/11/07 08:10:55;;;;;;;21.97;15.33;;;6.00;98.60;;;;;;5047807;28;20653;-86
2021/11/07 08:13:33;;;;;;;23.17;17.00;;;6.00;98.00;;;;;;5047303;28;20183;-88
2021/11/07 08:15:59;;;;;;;23.53;17.30;;;6.00;98.60;;;;;;5054512;28;20210;-88
2021/11/07 08:18:26;;;;;;;20.90;15.53;;;5.90;99.30;;;;;;5057173;28;20192;-88
2021/11/07 08:20:55;;;;;;;22.10;17.07;;;5.90;98.00;;;;;;5041067;28;20191;-88
2021/11/07 08:23:25;;;;;;;24.00;15.67;;;6.10;97.90;;;;;;5056089;28;20195;-88
2021/11/07 08:25:55;;;;;;;19.90;15.93;;;6.20;97.10;;;;;;5070383;28;20175;-87
2021/11/07 08:28:33;;;;;;;22.50;16.67;;;6.20;97.80;;;;;;5048298;28;20386;-87
2021/11/07 08:31:43;;;;;;;21.53;16.87;;;6.30;98.70;;;;;;5037373;28;20209;-88
2021/11/07 08:34:12;;;;;;;21.33;16.27;;;6.30;96.90;;;;;;5038980;28;20206;-86
2021/11/07 08:39:50;;;;;;;20.03;15.93;;;6.30;96.00;;;;;;5072752;28;20230;-88
2021/11/07 08:42:36;;;;;;;20.93;16.00;;;6.30;96.00;;;;;;5052812;28;21037;-87
2021/11/07 09:02:51;;;;;;;21.07;15.57;;;6.50;94.30;;;;;;5068783;28;20198;-88
2021/11/07 09:05:51;;;;;;;24.07;15.83;;;6.60;94.90;;;;;;5054942;28;20196;-87
2021/11/07 09:08:21;;;;;;;19.87;15.73;;;6.60;94.50;;;;;;5051312;28;20257;-89
2021/11/07 09:10:50;;;;;;;20.47;15.53;;;6.60;94.80;;;;;;5050517;28;20620;-87
2021/11/07 09:13:16;;;;;;;22.13;16.87;;;6.60;94.50;;;;;;5046529;28;20358;-87
2021/11/07 09:15:47;;;;;;;22.50;15.07;;;6.60;94.90;;;;;;5063978;28;20237;-89
2021/11/07 09:18:13;;;;;;;20.87;15.73;;;6.60;93.90;;;;;;5062595;28;20204;-89
2021/11/07 09:26:03;;;;;;;23.23;16.20;;;6.70;93.60;;;;;;5060624;28;20188;-87
2021/11/07 09:28:33;;;;;;;23.00;14.90;;;6.80;93.90;;;;;;5064544;28;20199;-90
2021/11/07 09:31:10;;;;;;;18.53;14.77;;;6.80;93.50;;;;;;5065079;28;20202;-87
2021/11/07 09:38:46;;;;;;;22.17;16.37;;;6.90;93.50;;;;;;5068406;28;20199;-89
2021/11/07 09:41:22;;;;;;;18.57;14.37;;;7.00;92.70;;;;;;5046784;28;20792;-88
2021/11/07 09:43:56;;;;;;;18.57;14.00;;;7.00;92.50;;;;;;5058937;28;20640;-86
2021/11/07 09:46:36;;;;;;;20.80;14.63;;;7.10;91.50;;;;;;5041940;28;20212;-89
2021/11/07 09:49:20;;;;;;;16.23;14.37;;;7.00;91.60;;;;;;5059343;28;20267;-89
2021/11/07 09:51:54;;;;;;;20.40;14.63;;;7.10;92.30;;;;;;5046604;28;20176;-88
2021/11/07 09:54:20;;;;;;;22.33;14.60;;;7.10;91.80;;;;;;5065051;28;20207;-87
2021/11/07 09:56:50;;;;;;;22.87;14.97;;;7.10;91.20;;;;;;5046777;28;20266;-89
2021/11/07 09:59:17;;;;;;;22.07;15.97;;;7.10;91.40;;;;;;5063339;28;20586;-90
2021/11/07 10:01:44;;;;;;;18.87;14.07;;;7.00;92.90;;;;;;5058385;28;20184;-87
2021/11/07 10:04:12;;;;;;;19.83;14.53;;;7.00;91.60;;;;;;5045178;28;20196;-91
2021/11/07 10:06:45;;;;;;;19.20;14.67;;;7.20;91.60;;;;;;5064500;28;20225;-88
2021/11/07 10:09:13;;;;;;;15.27;12.80;;;7.40;90.00;;;;;;5052685;28;20218;-88
2021/11/07 10:12:03;;;;;;;18.20;13.73;;;7.40;90.20;;;;;;5047038;28;20200;-87
2021/11/07 10:14:44;;;;;;;20.33;14.03;;;7.10;90.70;;;;;;5057269;28;20187;-89
2021/11/07 10:17:37;;;;;;;19.17;13.47;;;7.20;91.30;;;;;;5064065;28;20631;-86
2021/11/07 10:20:55;;;;;;;16.20;12.53;;;7.30;90.40;;;;;;5055949;28;20199;-87
2021/11/07 10:23:37;;;;;;;14.53;12.80;;;7.40;90.80;;;;;;5042996;28;20208;-87
2021/11/07 10:26:16;;;;;;;17.80;12.30;;;7.40;89.80;;;;;;5052154;28;20246;-87
2021/11/07 10:28:59;;;;;;;16.07;13.53;;;7.50;89.30;;;;;;5064529;28;20192;-87
2021/11/07 10:31:35;;;;;;;14.17;12.20;;;7.40;90.40;;;;;;5059238;28;20183;-88
2021/11/07 10:42:44;;;;;;;13.73;10.37;;;7.70;88.40;;;;;;5061819;28;20188;-88
2021/11/07 10:45:17;;;;;;;13.93;10.40;;;7.80;86.10;;;;;;5041174;28;20254;-86
2021/11/07 10:53:18;;;;;;;11.97;10.33;;;7.80;86.10;;;;;;5062566;28;20177;-86
2021/11/07 10:55:51;;;;;;;11.80;9.97;;;7.90;86.10;;;;;;5064449;28;20192;-87
2021/11/07 10:58:28;;;;;;;12.57;10.33;;;8.00;86.50;;;;;;5065324;28;20295;-87
2021/11/07 11:00:55;;;;;;;12.30;11.00;;;8.10;85.30;;;;;;5071686;28;20175;-88
2021/11/07 11:03:24;;;;;;;12.87;10.40;;;8.20;85.40;;;;;;5049435;28;20194;-87
2021/11/07 11:05:57;;;;;;;11.93;10.20;;;8.20;85.20;;;;;;5049858;28;20199;-88
2021/11/07 11:08:33;;;;;;;13.17;10.70;;;8.20;85.20;;;;;;5065674;28;20627;-86
2021/11/07 11:16:37;;;;;;;11.10;9.80;;;8.20;86.30;;;;;;5064197;28;20226;-87
2021/11/07 11:22:00;;;;;;;11.53;9.93;;;8.10;85.80;;;;;;5041792;28;20184;-87
2021/11/07 11:40:03;;;;;;;12.73;9.17;;;8.20;86.30;;;;;;5069262;28;20674;-87
2021/11/07 11:42:39;;;;;;;10.63;9.50;;;8.20;85.90;;;;;;5051659;28;20179;-89
2021/11/07 11:45:06;;;;;;;9.60;8.50;;;8.00;87.30;;;;;;5049592;28;20236;-87
2021/11/07 11:48:13;;;;;;;11.33;10.07;;;8.00;87.50;;;;;;5030068;28;20228;-87
2021/11/07 11:53:27;;;;;;;9.80;8.80;;;8.10;88.40;;;;;;5051166;28;20365;-89
2021/11/07 11:56:02;;;;;;;9.83;8.73;;;8.10;89.50;;;;;;5054006;28;20593;-87
2021/11/07 11:59:05;;;;;;;10.70;9.00;;;8.10;89.80;;;;;;5037424;28;20252;-89
2021/11/07 12:01:51;;;;;;;9.23;8.23;;;8.20;88.40;;;;;;5066298;28;20215;-87
2021/11/07 12:06:46;;;;;;;10.77;8.67;;;8.30;88.50;;;;;;5054420;28;20239;-87
2021/11/07 12:09:26;;;;;;;9.60;8.60;;;8.30;88.00;;;;;;5058653;28;20184;-87
2021/11/07 12:12:07;;;;;;;10.20;8.43;;;8.10;89.20;;;;;;5045785;28;20207;-87
2021/11/07 12:14:52;;;;;;;13.20;8.60;;;8.20;88.70;;;;;;5070606;28;20835;-89
2021/11/07 12:17:28;;;;;;;12.93;7.43;;;8.20;89.90;;;;;;5054713;28;20261;-89
2021/11/07 12:19:54;;;;;;;11.03;8.70;;;8.20;89.70;;;;;;5058000;28;20184;-87
2021/11/07 12:22:31;;;;;;;8.77;7.77;;;8.20;91.80;;;;;;5060690;28;20203;-88
2021/11/07 12:25:01;;;;;;;9.67;7.40;;;8.20;91.80;;;;;;5040719;28;20200;-87
2021/11/07 12:27:52;;;;;;;8.33;7.53;;;8.30;90.40;;;;;;5062628;28;20697;-88
2021/11/07 12:30:24;;;;;;;9.20;8.13;;;8.30;90.40;;;;;;5031494;28;20206;-88
2021/11/07 12:33:14;;;;;;;9.70;8.00;;;8.10;91.10;;;;;;5063789;28;20195;-89
2021/11/07 12:35:58;;;;;;;9.80;8.03;;;8.10;91.80;;;;;;5059228;28;20199;-90
2021/11/07 12:41:17;;;;;;;8.23;7.37;;;8.00;93.20;;;;;;5071096;28;20231;-89
2021/11/07 12:43:51;;;;;;;8.57;7.47;;;8.00;95.20;;;;;;5057592;28;20204;-90
2021/11/07 12:46:42;;;;;;;11.60;8.10;;;8.10;93.40;;;;;;5053773;28;20216;-90
2021/11/07 12:49:22;;;;;;;9.00;8.10;;;8.10;95.10;;;;;;5055904;28;20207;-89
2021/11/07 12:51:56;;;;;;;8.20;7.40;;;8.10;94.90;;;;;;5051486;28;20211;-89
2021/11/07 12:54:25;;;;;;;9.13;7.83;;;8.20;95.60;;;;;;5020268;28;20198;-89
2021/11/07 12:57:08;;;;;;;9.50;7.80;;;8.00;97.60;;;;;;5068640;28;20682;-88
2021/11/07 12:59:44;;;;;;;9.27;8.07;;;7.90;99.20;;;;;;5053655;28;20195;-87
2021/11/07 13:02:15;;;;;;;10.20;8.07;;;7.80;99.90;;;;;;5052559;28;20195;-89
2021/11/07 13:04:53;;;;;;;9.60;8.60;;;7.70;99.90;;;;;;5044920;28;20251;-89
2021/11/07 13:07:33;;;;;;;8.67;7.87;;;7.70;99.90;;;;;;5060987;28;20208;-90
2021/11/07 13:10:08;;;;;;;8.40;7.57;;;7.80;99.90;;;;;;5055113;28;20243;-89
2021/11/07 13:12:48;;;;;;;9.40;8.37;;;7.60;99.90;;;;;;5038506;28;20184;-89
2021/11/07 13:15:32;;;;;;;11.33;9.23;;;7.50;99.90;;;;;;5065888;28;20183;-90
2021/11/07 13:24:09;;;;;;;12.13;9.70;;;7.70;99.90;;;;;;4994871;28;20213;-88
2021/11/07 13:33:16;;;;;;;10.23;8.47;;;7.60;99.90;;;;;;5062841;28;20176;-89
2021/11/07 13:36:08;;;;;;;8.87;7.97;;;7.50;99.90;;;;;;5043642;28;20187;-89
2021/11/07 13:39:02;;;;;;;;;;;;;;;;;;;;;
2021/11/07 13:41:32;;;;;;;9.40;8.40;;;7.40;99.90;;;;;;5058435;28;20275;-89
2021/11/07 13:44:22;;;;;;;9.83;8.83;;;7.50;99.90;;;;;;5059021;28;20219;-89
2021/11/07 13:47:12;;;;;;;7.97;7.27;;;7.50;99.90;;;;;;5015982;28;20708;-89
2021/11/07 13:49:59;;;;;;;10.80;8.03;;;7.60;99.90;;;;;;5021687;28;20306;-89
2021/11/07 13:52:32;;;;;;;10.07;8.73;;;7.50;99.90;;;;;;5017700;28;20203;-91
2021/11/07 13:55:25;;;;;;;9.20;8.17;;;7.50;99.90;;;;;;5039743;28;20199;-89
2021/11/07 13:57:55;;;;;;;10.80;8.17;;;7.40;99.90;;;;;;5026938;28;20212;-90
2021/11/07 14:00:24;;;;;;;9.43;8.33;;;7.40;99.90;;;;;;5018183;28;20219;-89
2021/11/07 14:02:56;;;;;;;12.47;9.10;;;7.40;99.90;;;;;;5034180;28;20275;-90
2021/11/07 14:05:22;;;;;;;9.13;8.20;;;7.40;99.90;;;;;;5043821;28;20181;-90
2021/11/07 14:08:01;;;;;;;10.03;8.97;;;7.40;99.90;;;;;;5022194;28;20566;-90
2021/11/07 14:10:32;;;;;;;11.53;8.33;;;7.40;99.90;;;;;;5043540;28;20222;-91
2021/11/07 14:13:01;;;;;;;10.17;8.93;;;7.40;99.90;;;;;;5046205;28;20181;-90
2021/11/07 14:15:33;;;;;;;9.80;8.80;;;7.40;99.90;;;;;;5016051;28;20239;-91
2021/11/07 14:18:16;;;;;;;9.00;8.10;;;7.40;99.90;;;;;;5042512;28;20200;-92
2021/11/07 14:20:53;;;;;;;10.20;8.40;;;7.50;99.90;;;;;;5044234;28;20204;-90
2021/11/07 14:23:39;;;;;;;9.20;8.30;;;7.60;99.90;;;;;;5044794;28;20212;-91
2021/11/07 14:26:11;;;;;;;10.23;8.60;;;7.60;99.90;;;;;;5042221;28;20208;-90
2021/11/07 14:29:03;;;;;;;9.27;7.93;;;7.60;99.90;;;;;;5042753;28;20208;-91
2021/11/07 14:31:35;;;;;;;11.33;8.87;;;7.60;99.90;;;;;;5028176;28;20203;-92
2021/11/07 14:34:07;;;;;;;10.00;8.97;;;7.70;99.90;;;;;;5041375;28;20196;-91
2021/11/07 14:39:23;;;;;;;12.13;8.77;;;7.70;99.90;;;;;;5032222;28;20279;-92
2021/11/07 14:51:49;;;;;;;9.07;7.13;;;8.00;99.90;;;;;;5025983;28;20254;-91
2021/11/07 14:58:01;;;;;;;9.43;8.43;;;8.00;99.90;;;;;;4976905;28;20229;-89
2021/11/07 15:00:39;;;;;;;9.03;8.13;;;8.00;99.90;;;;;;4978030;28;20207;-90
2021/11/07 15:03:12;;;;;;;9.73;8.80;;;7.90;99.90;;;;;;4949646;28;20206;-90
2021/11/07 15:06:04;;;;;;;9.57;7.60;;;7.80;99.90;;;;;;4990424;28;20224;-88
2021/11/07 15:08:49;;;;;;;12.10;9.53;;;7.90;99.90;;;;;;5038901;28;20227;-89
2021/11/07 15:22:22;;;;;;;11.03;9.47;;;7.90;99.90;;;;;;5036081;28;20216;-89
2021/11/07 15:24:47;;;;;;;11.43;10.23;;;7.80;99.90;;;;;;5025576;28;20300;-89
2021/11/07 15:27:21;;;;;;;10.17;9.10;;;7.80;99.90;;;;;;5037399;28;20323;-88
2021/11/07 15:32:25;;;;;;;11.37;9.13;;;7.80;99.90;;;;;;5038996;28;20201;-90
2021/11/07 15:34:51;;;;;;;11.70;10.03;;;7.90;99.90;;;;;;5034693;28;20181;-89
2021/11/07 15:37:32;;;;;;;10.10;9.03;;;7.80;99.90;;;;;;5037109;28;20216;-90
2021/11/07 15:40:00;;;;;;;10.53;9.43;;;8.00;99.90;;;;;;5039584;28;20231;-90
2021/11/07 15:42:35;;;;;;;14.00;9.63;;;8.00;99.90;;;;;;5038440;28;20199;-89